Time;durP1;ratioP1;P1;durP2;ratioP2;P2;SDS_P1;SDS_P2;PMS_P1;PMS_P2;Temp;Humidity;BMP_temperature;BMP_pressure;BME280_temperature;BME280_humidity;BME280_pressure;Samples;Min_cycle;Max_cycle;Signal;HPM_P1;HPM_P2
2022/01/31 00:00:14;;;;;;;21.23;4.40;;;3.90;99.90;;;;;;5041126;28;20045;-95
2022/01/31 00:02:44;;;;;;;23.15;4.10;;;3.70;99.90;;;;;;5056386;28;20053;-94
2022/01/31 00:05:10;;;;;;;23.57;4.23;;;3.90;99.90;;;;;;5055795;28;20044;-94
2022/01/31 00:07:36;;;;;;;22.63;5.47;;;3.90;99.90;;;;;;5024505;28;20045;-96
2022/01/31 00:10:07;;;;;;;24.70;4.72;;;3.80;99.90;;;;;;5024078;28;20387;-95
2022/01/31 00:12:47;;;;;;;22.40;5.10;;;3.80;99.90;;;;;;5023811;28;20048;-95
2022/01/31 00:15:13;;;;;;;24.98;4.78;;;3.70;99.90;;;;;;5022062;28;20491;-95
2022/01/31 00:17:39;;;;;;;22.45;4.95;;;4.00;99.90;;;;;;5057521;28;20613;-94
2022/01/31 00:20:05;;;;;;;23.27;5.00;;;3.80;99.90;;;;;;5038343;28;20121;-94
2022/01/31 00:22:34;;;;;;;20.35;4.30;;;3.70;99.90;;;;;;5021502;28;20045;-95
2022/01/31 00:24:59;;;;;;;23.80;5.00;;;3.70;99.90;;;;;;5021666;28;20048;-94
2022/01/31 00:27:25;;;;;;;33.05;5.63;;;3.70;99.90;;;;;;5039083;28;20048;-94
2022/01/31 00:29:51;;;;;;;21.77;5.25;;;4.10;99.90;;;;;;5055236;28;20049;-94
2022/01/31 00:32:16;;;;;;;22.17;5.70;;;4.10;99.90;;;;;;5054891;28;20115;-94
2022/01/31 00:34:42;;;;;;;20.30;5.15;;;3.90;99.90;;;;;;5038417;28;20107;-95
2022/01/31 00:37:11;;;;;;;23.67;5.20;;;3.90;99.90;;;;;;5021111;28;20043;-94
2022/01/31 00:39:37;;;;;;;26.20;6.03;;;4.00;99.90;;;;;;5055674;28;20045;-95
2022/01/31 00:42:07;;;;;;;25.40;6.00;;;4.00;99.90;;;;;;5037751;28;20080;-94
2022/01/31 00:44:53;;;;;;;17.98;5.22;;;4.00;99.90;;;;;;5038104;28;20127;-93
2022/01/31 00:47:23;;;;;;;24.15;6.10;;;4.00;99.90;;;;;;5022701;28;20111;-93
2022/01/31 00:50:04;;;;;;;24.60;5.80;;;4.00;99.90;;;;;;5021702;28;20040;-93
2022/01/31 00:52:30;;;;;;;27.75;6.47;;;4.00;99.90;;;;;;5054151;28;20083;-93
2022/01/31 00:54:55;;;;;;;20.58;5.22;;;4.10;99.90;;;;;;5037468;28;20045;-92
2022/01/31 00:57:21;;;;;;;22.40;6.22;;;4.00;99.90;;;;;;5021301;28;20072;-94
2022/01/31 00:59:50;;;;;;;26.90;7.20;;;4.10;99.90;;;;;;5020860;28;20053;-94
2022/01/31 01:02:19;;;;;;;26.25;6.38;;;3.80;99.90;;;;;;5054506;28;20056;-93
2022/01/31 01:04:45;;;;;;;31.20;6.93;;;4.10;99.90;;;;;;5053575;28;20048;-93
2022/01/31 01:07:11;;;;;;;25.00;6.75;;;4.10;99.90;;;;;;5053988;28;20059;-93
2022/01/31 01:09:37;;;;;;;26.30;6.30;;;4.10;99.90;;;;;;5070766;28;20055;-92
2022/01/31 01:12:06;;;;;;;23.17;5.70;;;4.60;99.90;;;;;;5053724;28;20037;-92
2022/01/31 01:14:32;;;;;;;19.38;7.45;;;4.00;99.90;;;;;;5021115;28;20045;-93
2022/01/31 01:17:01;;;;;;;23.52;6.70;;;4.00;99.90;;;;;;5037334;28;20510;-92
2022/01/31 01:19:27;;;;;;;22.73;6.72;;;3.90;99.90;;;;;;5021309;28;20052;-93
2022/01/31 01:21:53;;;;;;;23.60;7.07;;;4.00;99.90;;;;;;5021428;28;20044;-93
2022/01/31 01:24:18;;;;;;;28.58;8.25;;;3.80;99.90;;;;;;5044067;28;20076;-92
2022/01/31 01:26:44;;;;;;;27.48;8.30;;;3.80;99.90;;;;;;5066507;28;20100;-93
2022/01/31 01:29:10;;;;;;;27.52;8.48;;;3.80;99.90;;;;;;5045895;28;20125;-94
2022/01/31 01:31:39;;;;;;;42.05;9.50;;;3.90;99.90;;;;;;5027657;28;20056;-96
2022/01/31 01:34:06;;;;;;;36.83;10.55;;;3.60;99.90;;;;;;5022146;28;20080;-90
2022/01/31 01:36:32;;;;;;;31.75;10.65;;;3.60;99.90;;;;;;5057354;28;20483;-91
2022/01/31 01:39:04;;;;;;;31.30;10.63;;;3.40;99.90;;;;;;5028809;28;20048;-91
2022/01/31 01:41:33;;;;;;;39.38;12.43;;;3.30;99.90;;;;;;5058290;28;20041;-90
2022/01/31 01:44:00;;;;;;;32.83;11.40;;;3.60;99.90;;;;;;5056708;28;20084;-92
2022/01/31 01:46:26;;;;;;;37.50;12.68;;;3.20;99.90;;;;;;5020731;28;20418;-90
2022/01/31 01:48:52;;;;;;;42.13;13.32;;;3.30;99.90;;;;;;5055572;28;20384;-91
2022/01/31 01:51:18;;;;;;;26.58;12.27;;;3.30;99.90;;;;;;5022071;28;20041;-90
2022/01/31 01:53:44;;;;;;;35.63;14.05;;;3.10;99.90;;;;;;5041782;28;20047;-92
2022/01/31 02:00:49;;;;;;;33.45;11.77;;;3.00;99.90;;;;;;5061639;28;20060;-94
2022/01/31 02:03:20;;;;;;;23.55;10.77;;;3.10;99.90;;;;;;5034318;28;20128;-89
2022/01/31 02:05:47;;;;;;;25.20;11.38;;;3.10;99.90;;;;;;5019963;28;20045;-96
2022/01/31 02:08:23;;;;;;;38.20;14.27;;;3.10;99.90;;;;;;5036640;28;20045;-93
2022/01/31 02:10:50;;;;;;;25.20;11.07;;;3.60;99.90;;;;;;5034237;28;20038;-89
2022/01/31 02:13:28;;;;;;;36.03;12.82;;;2.70;99.90;;;;;;5019547;28;20057;-92
2022/01/31 02:15:54;;;;;;;39.15;13.68;;;3.10;99.90;;;;;;5002123;28;20495;-94
2022/01/31 02:18:24;;;;;;;33.40;12.52;;;3.10;99.90;;;;;;5033847;28;20038;-94
2022/01/31 02:20:52;;;;;;;31.37;12.10;;;3.10;99.90;;;;;;5034881;28;20072;-92
2022/01/31 02:23:18;;;;;;;35.97;12.38;;;3.20;99.90;;;;;;5033719;28;20053;-92
2022/01/31 02:25:54;;;;;;;28.27;13.85;;;3.40;99.90;;;;;;5034290;28;20054;-90
2022/01/31 02:28:25;;;;;;;29.08;12.45;;;3.60;99.90;;;;;;5032726;28;20506;-91
2022/01/31 02:30:50;;;;;;;26.05;9.07;;;3.20;99.90;;;;;;5032996;28;20176;-92
2022/01/31 02:33:18;;;;;;;34.20;11.05;;;3.30;99.90;;;;;;5018173;28;20061;-92
2022/01/31 02:35:49;;;;;;;24.42;11.98;;;3.30;99.90;;;;;;5039181;28;20135;-94
2022/01/31 02:38:15;;;;;;;25.17;10.55;;;3.50;99.90;;;;;;5022805;28;20107;-95
2022/01/31 02:40:41;;;;;;;22.10;10.02;;;3.20;99.90;;;;;;5004138;28;20527;-94
2022/01/31 02:43:18;;;;;;;23.48;10.27;;;3.10;99.90;;;;;;5004926;28;20053;-92
2022/01/31 02:45:44;;;;;;;17.52;8.90;;;3.30;99.90;;;;;;5005840;28;20045;-95
2022/01/31 02:48:09;;;;;;;19.15;8.73;;;3.10;99.90;;;;;;5005746;28;20041;-92
2022/01/31 02:50:40;;;;;;;20.13;8.07;;;3.20;99.90;;;;;;5005618;28;20053;-93
2022/01/31 02:53:13;;;;;;;20.95;8.68;;;3.10;99.90;;;;;;5037078;28;20052;-93
2022/01/31 02:55:45;;;;;;;20.38;9.15;;;3.20;99.90;;;;;;5006447;28;20053;-96
2022/01/31 02:58:14;;;;;;;14.05;7.75;;;2.90;99.90;;;;;;5006736;28;20042;-95
2022/01/31 03:00:41;;;;;;;16.23;8.45;;;3.10;99.90;;;;;;5007484;28;20132;-95
2022/01/31 03:03:07;;;;;;;20.17;9.18;;;3.20;99.90;;;;;;5056770;28;20491;-93
2022/01/31 03:05:42;;;;;;;23.52;10.20;;;3.40;99.90;;;;;;5024502;28;20047;-95
2022/01/31 03:08:13;;;;;;;21.23;10.10;;;2.80;99.90;;;;;;5057605;28;20183;-95
2022/01/31 03:10:44;;;;;;;25.98;10.00;;;3.10;99.90;;;;;;5023751;28;20040;-94
2022/01/31 03:13:13;;;;;;;20.65;10.55;;;3.10;99.90;;;;;;5056199;28;20045;-95
2022/01/31 03:15:39;;;;;;;19.38;9.70;;;3.30;99.90;;;;;;5023630;28;20052;-95
2022/01/31 03:18:06;;;;;;;21.02;9.65;;;3.40;99.90;;;;;;5023192;28;20041;-95
2022/01/31 03:20:32;;;;;;;27.05;10.57;;;3.30;99.90;;;;;;5056093;28;20548;-94
2022/01/31 03:22:58;;;;;;;23.20;11.10;;;3.30;99.90;;;;;;5055692;28;20044;-93
2022/01/31 03:25:23;;;;;;;21.65;9.52;;;3.50;99.90;;;;;;5041238;28;20132;-93
2022/01/31 03:27:49;;;;;;;17.70;8.13;;;3.30;99.90;;;;;;5024138;28;20072;-95
2022/01/31 03:30:20;;;;;;;20.52;7.57;;;3.60;99.90;;;;;;5040214;28;20052;-91
2022/01/31 03:32:46;;;;;;;25.00;9.75;;;3.50;99.90;;;;;;5023912;28;20140;-94
2022/01/31 03:35:12;;;;;;;19.55;8.45;;;3.90;99.90;;;;;;5073172;28;20399;-94
2022/01/31 03:37:38;;;;;;;24.63;10.07;;;3.70;99.90;;;;;;5022817;28;20052;-95
2022/01/31 03:40:06;;;;;;;18.67;8.00;;;3.80;99.90;;;;;;5056108;28;20045;-95
2022/01/31 03:42:32;;;;;;;24.67;8.35;;;3.90;99.90;;;;;;5072282;28;20040;-95
2022/01/31 03:45:00;;;;;;;20.92;8.00;;;4.10;99.90;;;;;;5022401;28;20056;-95
2022/01/31 03:47:26;;;;;;;25.45;8.18;;;4.20;99.90;;;;;;5024291;28;20084;-95
2022/01/31 03:49:52;;;;;;;29.17;8.93;;;4.20;99.90;;;;;;5060150;28;20504;-95
2022/01/31 03:52:18;;;;;;;26.17;7.38;;;4.20;99.90;;;;;;5028320;28;20099;-93
2022/01/31 03:54:44;;;;;;;27.10;7.50;;;4.30;99.90;;;;;;5076591;28;20055;-94
2022/01/31 03:57:16;;;;;;;24.50;6.57;;;4.30;99.90;;;;;;5023625;28;20045;-95
2022/01/31 03:59:42;;;;;;;21.88;5.22;;;4.30;99.90;;;;;;5022515;28;20098;-93
2022/01/31 04:02:08;;;;;;;28.45;4.93;;;4.80;99.90;;;;;;5022219;28;20437;-95
2022/01/31 04:04:34;;;;;;;24.75;4.53;;;4.60;99.90;;;;;;5071962;28;20128;-94
2022/01/31 04:07:01;;;;;;;20.52;3.95;;;4.90;99.90;;;;;;5039070;28;20045;-91
2022/01/31 04:09:27;;;;;;;21.65;3.25;;;4.70;99.90;;;;;;5022561;28;20045;-93
2022/01/31 04:11:56;;;;;;;25.67;3.08;;;4.90;99.90;;;;;;5038443;28;20049;-95
2022/01/31 04:14:27;;;;;;;24.88;3.53;;;5.00;99.90;;;;;;5055411;28;20463;-92
2022/01/31 04:16:55;;;;;;;18.50;3.10;;;4.90;99.90;;;;;;5022479;28;20383;-95
2022/01/31 04:19:26;;;;;;;21.95;2.63;;;4.80;99.90;;;;;;5023098;28;20041;-94
2022/01/31 04:21:56;;;;;;;32.53;3.65;;;5.30;99.90;;;;;;5038990;28;20371;-93
2022/01/31 04:24:29;;;;;;;21.27;2.65;;;4.90;99.90;;;;;;5022487;28;20049;-95
2022/01/31 04:27:05;;;;;;;20.02;3.38;;;5.10;99.90;;;;;;5055646;28;20041;-93
2022/01/31 04:29:38;;;;;;;21.98;2.85;;;4.80;99.90;;;;;;5022447;28;20045;-93
2022/01/31 04:32:08;;;;;;;33.95;3.50;;;4.90;99.90;;;;;;5022181;28;20084;-92
2022/01/31 04:34:34;;;;;;;31.95;2.97;;;4.90;99.90;;;;;;5021752;28;20471;-91
2022/01/31 04:36:59;;;;;;;30.58;3.10;;;5.00;99.90;;;;;;5038423;28;20037;-92
2022/01/31 04:39:27;;;;;;;31.13;3.90;;;4.90;99.90;;;;;;5021489;28;20398;-92
2022/01/31 04:41:53;;;;;;;26.98;2.97;;;5.00;99.90;;;;;;5021635;28;20088;-93
2022/01/31 04:44:19;;;;;;;23.10;3.10;;;4.90;99.90;;;;;;5054261;28;20040;-94
2022/01/31 04:46:49;;;;;;;25.75;3.22;;;4.90;99.90;;;;;;5021507;28;20049;-93
2022/01/31 04:49:16;;;;;;;32.95;3.15;;;4.70;99.90;;;;;;5021630;28;20041;-92
2022/01/31 04:51:42;;;;;;;30.27;3.70;;;4.70;99.90;;;;;;5021256;28;20045;-94
2022/01/31 04:54:10;;;;;;;27.15;3.35;;;4.60;99.90;;;;;;5021865;28;20037;-95
2022/01/31 04:56:38;;;;;;;23.33;3.00;;;4.70;99.90;;;;;;5021822;28;20045;-92
2022/01/31 04:59:04;;;;;;;22.08;3.30;;;4.80;99.90;;;;;;5020233;28;20041;-93
2022/01/31 05:01:30;;;;;;;28.20;3.22;;;4.70;99.90;;;;;;5021169;28;20217;-94
2022/01/31 05:03:56;;;;;;;21.73;3.00;;;4.70;99.90;;;;;;5053677;28;20060;-93
2022/01/31 05:06:33;;;;;;;18.10;2.47;;;4.80;99.90;;;;;;5038315;28;20079;-93
2022/01/31 05:08:59;;;;;;;33.55;2.97;;;4.60;99.90;;;;;;5020399;28;20106;-93
2022/01/31 05:11:24;;;;;;;26.08;3.03;;;4.60;99.90;;;;;;5020487;28;20040;-92
2022/01/31 05:13:50;;;;;;;29.30;3.13;;;4.50;99.90;;;;;;5020869;28;20450;-93
2022/01/31 05:16:16;;;;;;;27.20;3.60;;;4.30;99.90;;;;;;5053514;28;20107;-93
2022/01/31 05:18:44;;;;;;;25.65;3.15;;;4.70;99.90;;;;;;5036165;28;20037;-93
2022/01/31 05:21:10;;;;;;;24.35;3.30;;;4.70;99.90;;;;;;5020557;28;20520;-94
2022/01/31 05:23:35;;;;;;;25.88;2.72;;;4.40;99.90;;;;;;5053334;28;20044;-92
2022/01/31 05:26:01;;;;;;;29.23;3.03;;;4.70;99.90;;;;;;5036853;28;20047;-93
2022/01/31 05:32:08;;;;;;;29.27;2.88;;;4.50;99.90;;;;;;5054548;28;20060;-91
2022/01/31 05:34:34;;;;;;;14.77;1.42;;;4.60;99.90;;;;;;5020400;28;20052;-93
2022/01/31 05:37:00;;;;;;;8.98;1.48;;;4.70;99.90;;;;;;5020429;28;20136;-94
2022/01/31 05:39:26;;;;;;;17.17;1.77;;;4.60;99.90;;;;;;5053697;28;20188;-95
2022/01/31 05:41:56;;;;;;;19.13;1.80;;;3.80;99.90;;;;;;5055153;28;20091;-94
2022/01/31 05:44:26;;;;;;;11.93;1.95;;;4.40;99.90;;;;;;5020551;28;20534;-94
2022/01/31 05:46:53;;;;;;;19.95;1.75;;;4.10;99.90;;;;;;5036674;28;20719;-94
2022/01/31 05:49:19;;;;;;;11.85;1.25;;;4.20;99.90;;;;;;5020999;28;20049;-95
2022/01/31 05:52:02;;;;;;;13.95;1.45;;;4.20;99.90;;;;;;5054556;28;20450;-93
2022/01/31 05:54:29;;;;;;;14.60;1.55;;;3.80;99.90;;;;;;5021049;28;20045;-95
2022/01/31 05:56:56;;;;;;;12.25;1.48;;;4.40;99.90;;;;;;5020703;28;20049;-95
2022/01/31 05:59:24;;;;;;;9.35;1.10;;;4.30;99.90;;;;;;5021363;28;20037;-94
2022/01/31 06:01:51;;;;;;;11.40;1.30;;;4.10;99.90;;;;;;5070971;28;20482;-91
2022/01/31 06:04:20;;;;;;;11.20;1.25;;;4.30;99.90;;;;;;5071052;28;20513;-91
2022/01/31 06:06:45;;;;;;;12.82;1.70;;;4.20;99.90;;;;;;5022487;28;20471;-95
2022/01/31 06:09:11;;;;;;;13.25;1.80;;;4.20;99.90;;;;;;5052979;28;20051;-94
2022/01/31 06:11:37;;;;;;;19.30;1.52;;;4.20;99.90;;;;;;5020067;28;20053;-92
2022/01/31 06:14:09;;;;;;;21.92;1.77;;;4.30;99.90;;;;;;5036746;28;20041;-94
2022/01/31 06:16:36;;;;;;;19.95;1.65;;;4.20;99.90;;;;;;5040436;28;20052;-95
2022/01/31 06:19:02;;;;;;;25.20;2.85;;;4.40;99.90;;;;;;5073146;28;20079;-95
2022/01/31 06:21:28;;;;;;;20.73;2.15;;;4.50;99.90;;;;;;5040442;28;20103;-92
2022/01/31 06:23:53;;;;;;;21.15;2.00;;;4.50;99.90;;;;;;5057709;28;20044;-91
2022/01/31 06:26:21;;;;;;;23.95;2.70;;;4.50;99.90;;;;;;5040175;28;20132;-94
2022/01/31 06:28:50;;;;;;;23.27;2.70;;;4.30;99.90;;;;;;5073113;28;20052;-96
2022/01/31 06:31:16;;;;;;;30.75;2.55;;;4.50;99.90;;;;;;5072632;28;20041;-95
2022/01/31 06:33:42;;;;;;;24.45;2.10;;;4.50;99.90;;;;;;5073782;28;20696;-94
2022/01/31 06:36:08;;;;;;;25.42;1.83;;;4.50;99.90;;;;;;5040040;28;20044;-92
2022/01/31 06:38:38;;;;;;;18.27;2.50;;;4.40;99.90;;;;;;5089835;28;20040;-90
2022/01/31 06:41:09;;;;;;;29.83;2.42;;;4.50;99.90;;;;;;5040258;28;20080;-94
2022/01/31 06:43:35;;;;;;;;;;;4.50;99.90;;;;;;5056486;28;20060;-93
2022/01/31 06:46:03;;;;;;;19.67;2.72;;;4.70;99.90;;;;;;5040685;28;19926;-94
2022/01/31 06:48:29;;;;;;;19.13;1.77;;;4.60;99.90;;;;;;5056639;28;20055;-94
2022/01/31 06:50:55;;;;;;;20.73;2.10;;;4.90;99.90;;;;;;5039484;28;20053;-89
2022/01/31 06:53:26;;;;;;;15.05;1.98;;;5.00;99.90;;;;;;5090859;28;20041;-93
2022/01/31 06:55:53;;;;;;;19.30;2.13;;;4.60;99.90;;;;;;5056211;28;20066;-92
2022/01/31 06:58:18;;;;;;;10.52;1.50;;;4.60;99.90;;;;;;5039216;28;20040;-95
2022/01/31 07:00:44;;;;;;;11.98;1.38;;;4.70;99.90;;;;;;5056315;28;20049;-93
2022/01/31 07:03:13;;;;;;;12.88;1.27;;;4.20;99.90;;;;;;5072804;28;20091;-94
2022/01/31 07:05:42;;;;;;;9.55;1.23;;;4.50;99.90;;;;;;5072381;28;20055;-93
2022/01/31 07:08:08;;;;;;;13.88;1.63;;;4.50;99.90;;;;;;5038643;28;20072;-94
2022/01/31 07:10:34;;;;;;;11.15;1.52;;;4.40;99.90;;;;;;5054271;28;20075;-88
2022/01/31 07:13:03;;;;;;;8.15;0.90;;;4.50;99.90;;;;;;5075144;28;20816;-91
2022/01/31 07:15:31;;;;;;;12.70;1.40;;;4.80;99.90;;;;;;5059792;28;20378;-94
2022/01/31 07:17:57;;;;;;;11.68;1.75;;;4.60;99.90;;;;;;5059856;28;20043;-94
2022/01/31 07:20:34;;;;;;;14.50;1.38;;;4.50;99.90;;;;;;5059683;28;20044;-94
2022/01/31 07:23:03;;;;;;;8.27;1.50;;;4.60;99.90;;;;;;5063351;28;20044;-93
2022/01/31 07:25:38;;;;;;;15.38;1.55;;;4.60;99.90;;;;;;5061771;28;20062;-92
2022/01/31 07:28:16;;;;;;;19.77;1.50;;;4.60;99.90;;;;;;5062622;28;20614;-95
2022/01/31 07:30:49;;;;;;;19.90;1.75;;;4.50;99.90;;;;;;5062865;28;20079;-95
2022/01/31 07:33:15;;;;;;;21.42;1.92;;;4.70;99.90;;;;;;5062526;28;20112;-94
2022/01/31 07:35:42;;;;;;;23.88;1.77;;;4.50;99.90;;;;;;5062759;28;20044;-93
2022/01/31 07:38:09;;;;;;;21.88;1.98;;;4.40;99.90;;;;;;5080178;28;20130;-94
2022/01/31 07:40:39;;;;;;;20.83;2.65;;;4.50;99.90;;;;;;5063686;28;20397;-95
2022/01/31 07:43:05;;;;;;;13.32;1.60;;;4.50;99.90;;;;;;5064029;28;20040;-94
2022/01/31 07:45:30;;;;;;;16.60;1.65;;;4.60;99.90;;;;;;5062413;28;20444;-93
2022/01/31 07:47:56;;;;;;;19.20;1.58;;;4.50;99.90;;;;;;5062625;28;20094;-93
2022/01/31 07:50:22;;;;;;;19.52;1.83;;;4.70;99.90;;;;;;5062758;28;20449;-94
2022/01/31 07:52:48;;;;;;;20.40;2.00;;;4.60;99.90;;;;;;5062500;28;20130;-94
2022/01/31 07:55:14;;;;;;;26.02;2.53;;;4.70;99.90;;;;;;5062118;28;20044;-93
2022/01/31 07:57:45;;;;;;;18.95;1.90;;;4.60;99.90;;;;;;5060989;28;20052;-95
2022/01/31 08:00:12;;;;;;;20.63;2.03;;;5.10;99.90;;;;;;5079424;28;20508;-95
2022/01/31 08:02:43;;;;;;;16.02;1.98;;;4.80;99.90;;;;;;5079609;28;20048;-93
2022/01/31 08:05:09;;;;;;;20.52;2.05;;;4.80;99.90;;;;;;5062102;28;20397;-93
2022/01/31 08:07:39;;;;;;;20.77;2.50;;;4.90;99.90;;;;;;5078870;28;20044;-93
2022/01/31 08:10:07;;;;;;;20.02;2.13;;;4.90;99.90;;;;;;5062435;28;20052;-93
2022/01/31 08:12:35;;;;;;;24.80;2.58;;;4.90;99.90;;;;;;5064319;28;20047;-91
2022/01/31 08:15:07;;;;;;;20.77;2.15;;;4.90;99.90;;;;;;5063879;28;20074;-94
2022/01/31 08:17:38;;;;;;;17.58;1.92;;;5.00;99.90;;;;;;5063365;28;20083;-95
2022/01/31 08:20:05;;;;;;;25.20;2.80;;;5.00;99.90;;;;;;5062840;28;20507;-95
2022/01/31 08:22:30;;;;;;;27.02;2.72;;;5.00;99.90;;;;;;5061316;28;20073;-95
2022/01/31 08:24:59;;;;;;;21.67;2.42;;;5.30;99.90;;;;;;5063202;28;20074;-96
2022/01/31 08:27:24;;;;;;;23.92;2.15;;;5.20;99.90;;;;;;5079354;28;20048;-95
2022/01/31 08:29:55;;;;;;;20.75;2.15;;;5.40;99.90;;;;;;5063521;28;20069;-94
2022/01/31 08:32:33;;;;;;;16.38;1.70;;;5.10;99.90;;;;;;5061328;28;20044;-95
2022/01/31 08:37:46;;;;;;;19.65;2.08;;;5.20;99.90;;;;;;5077735;28;20493;-94
2022/01/31 08:40:12;;;;;;;21.77;1.90;;;5.20;99.90;;;;;;5061201;28;20127;-94
2022/01/31 08:42:38;;;;;;;16.05;2.45;;;5.00;99.90;;;;;;5061824;28;20055;-95
2022/01/31 08:45:10;;;;;;;27.73;2.70;;;5.40;99.90;;;;;;5061866;28;20075;-94
2022/01/31 08:47:41;;;;;;;23.95;2.17;;;5.30;99.90;;;;;;5060428;28;20069;-94
2022/01/31 08:50:08;;;;;;;;;;;5.40;99.90;;;;;;5061447;28;20086;-93
2022/01/31 08:52:33;;;;;;;21.65;2.17;;;5.30;99.90;;;;;;5060732;28;19978;-92
2022/01/31 08:54:59;;;;;;;12.55;1.77;;;5.50;99.90;;;;;;5061087;28;20083;-92
2022/01/31 08:57:25;;;;;;;20.25;2.28;;;5.90;99.90;;;;;;5060729;28;20402;-91
2022/01/31 08:59:52;;;;;;;13.35;1.42;;;5.60;99.90;;;;;;5077600;28;20044;-92
2022/01/31 09:02:25;;;;;;;18.67;1.88;;;5.60;99.90;;;;;;5076743;28;20149;-92
2022/01/31 09:04:52;;;;;;;20.55;1.52;;;5.70;99.90;;;;;;5060016;28;20229;-93
2022/01/31 09:07:20;;;;;;;11.00;1.58;;;5.60;99.90;;;;;;5060265;28;20538;-90
2022/01/31 09:09:53;;;;;;;17.25;1.67;;;5.70;99.90;;;;;;5059864;28;20079;-92
2022/01/31 09:12:25;;;;;;;12.38;1.20;;;5.90;99.90;;;;;;5076747;28;20048;-91
2022/01/31 09:14:51;;;;;;;14.63;2.05;;;5.80;99.90;;;;;;5059743;28;20126;-92
2022/01/31 09:17:17;;;;;;;11.32;1.83;;;5.90;99.90;;;;;;5059994;28;20071;-94
2022/01/31 09:19:43;;;;;;;14.60;1.45;;;5.70;99.90;;;;;;5076749;28;20055;-93
2022/01/31 09:22:08;;;;;;;16.98;1.88;;;5.90;99.90;;;;;;5076747;28;20050;-92
2022/01/31 09:24:38;;;;;;;13.95;1.88;;;6.40;99.90;;;;;;5059907;28;20048;-93
2022/01/31 09:27:08;;;;;;;13.48;1.60;;;6.20;99.90;;;;;;5060272;28;20105;-92
2022/01/31 09:29:34;;;;;;;14.17;1.90;;;6.10;99.90;;;;;;5060232;28;20044;-93
2022/01/31 09:32:03;;;;;;;18.55;1.90;;;6.40;99.90;;;;;;5076230;28;20090;-90
2022/01/31 09:34:30;;;;;;;12.32;1.40;;;6.10;99.90;;;;;;5076794;28;20044;-91
2022/01/31 09:36:57;;;;;;;16.90;1.20;;;6.10;99.90;;;;;;5076218;28;20109;-94
2022/01/31 09:39:23;;;;;;;13.48;1.40;;;6.00;99.90;;;;;;5059502;28;20457;-92
2022/01/31 09:42:32;;;;;;;11.88;1.38;;;6.10;99.90;;;;;;5059171;28;20055;-93
2022/01/31 09:50:12;;;;;;;15.93;1.30;;;6.00;99.90;;;;;;4996469;28;20053;-93
2022/01/31 09:52:38;;;;;;;8.20;1.27;;;6.10;99.90;;;;;;4980090;28;20104;-92
2022/01/31 09:55:06;;;;;;;11.05;1.38;;;6.20;99.90;;;;;;4996006;28;20046;-93
2022/01/31 09:57:32;;;;;;;10.75;1.00;;;6.00;99.90;;;;;;4995995;28;20104;-92
2022/01/31 09:59:58;;;;;;;10.88;1.38;;;6.20;99.90;;;;;;4996163;28;20431;-94
2022/01/31 10:02:23;;;;;;;11.75;1.45;;;6.00;99.90;;;;;;4996122;28;20050;-94
2022/01/31 10:04:49;;;;;;;12.63;2.15;;;6.20;99.90;;;;;;4980221;28;20093;-93
2022/01/31 10:07:17;;;;;;;17.85;2.97;;;6.00;99.90;;;;;;4979611;28;20623;-93
2022/01/31 10:09:48;;;;;;;12.27;1.98;;;6.10;99.90;;;;;;4995813;28;20045;-91
2022/01/31 10:18:02;;;;;;;7.43;1.00;;;5.90;99.90;;;;;;4995927;28;20088;-94
2022/01/31 10:20:31;;;;;;;9.82;1.42;;;5.90;99.90;;;;;;4979502;28;20077;-95
2022/01/31 10:23:07;;;;;;;12.40;1.60;;;6.20;99.90;;;;;;4996433;28;20081;-92
2022/01/31 10:25:33;;;;;;;14.38;1.65;;;6.60;99.90;;;;;;4980300;28;20046;-91
2022/01/31 10:27:59;;;;;;;10.15;1.27;;;7.70;99.90;;;;;;5060129;28;20167;-94
2022/01/31 10:30:29;;;;;;;9.80;1.33;;;8.30;99.90;;;;;;5075988;28;20497;-95
2022/01/31 10:32:57;;;;;;;6.60;1.30;;;8.90;99.90;;;;;;5075534;28;20040;-93
2022/01/31 10:35:29;;;;;;;13.15;1.67;;;9.40;99.90;;;;;;5059445;28;20673;-93
2022/01/31 10:38:04;;;;;;;5.78;1.00;;;9.70;99.90;;;;;;5075754;28;20098;-94
2022/01/31 10:46:21;;;;;;;7.30;1.50;;;10.70;99.90;;;;;;5076195;28;20048;-93
2022/01/31 10:57:03;;;;;;;6.18;1.38;;;11.00;99.90;;;;;;5078119;28;20500;-94
2022/01/31 10:59:46;;;;;;;6.22;1.20;;;11.30;99.90;;;;;;5079381;28;20046;-93
2022/01/31 11:02:19;;;;;;;9.60;1.20;;;11.10;99.90;;;;;;5064155;28;20048;-94
2022/01/31 11:04:45;;;;;;;13.10;1.65;;;10.50;99.90;;;;;;5080139;28;20056;-94
2022/01/31 11:07:17;;;;;;;10.93;1.55;;;10.10;99.90;;;;;;5065667;28;20131;-94
2022/01/31 11:09:45;;;;;;;12.05;1.58;;;10.30;99.90;;;;;;5080011;28;20048;-93
2022/01/31 11:12:11;;;;;;;11.45;2.10;;;10.10;99.90;;;;;;5081432;28;20051;-93
2022/01/31 11:14:39;;;;;;;13.48;2.00;;;9.30;99.90;;;;;;5063820;28;20040;-95
2022/01/31 11:17:11;;;;;;;20.50;2.03;;;8.90;99.90;;;;;;5080326;28;20051;-93
2022/01/31 11:19:41;;;;;;;19.73;2.03;;;8.30;99.90;;;;;;5080135;28;20044;-94
2022/01/31 11:22:16;;;;;;;12.95;2.47;;;8.20;99.90;;;;;;5063649;28;20127;-94
2022/01/31 11:24:48;;;;;;;16.42;2.78;;;7.70;99.90;;;;;;5064417;28;20485;-94
2022/01/31 11:27:23;;;;;;;17.65;2.55;;;7.70;99.90;;;;;;5062719;28;20044;-94
2022/01/31 11:29:55;;;;;;;16.77;1.85;;;7.50;99.90;;;;;;5062913;28;20048;-94
2022/01/31 11:32:26;;;;;;;11.05;1.80;;;7.60;99.90;;;;;;5063165;28;20134;-95
2022/01/31 11:34:53;;;;;;;12.60;1.90;;;8.00;99.90;;;;;;5079380;28;20489;-93
2022/01/31 11:37:25;;;;;;;18.88;2.25;;;8.50;99.90;;;;;;5044355;28;20502;-93
2022/01/31 11:39:57;;;;;;;10.30;1.60;;;8.80;99.90;;;;;;5054516;28;20125;-94
2022/01/31 11:42:47;;;;;;;15.50;2.38;;;8.60;99.90;;;;;;5037952;28;20418;-92
2022/01/31 11:45:17;;;;;;;16.08;1.83;;;8.70;99.90;;;;;;5054885;28;20049;-95
2022/01/31 11:47:46;;;;;;;13.95;1.58;;;9.10;99.90;;;;;;5071503;28;20044;-94
2022/01/31 11:50:12;;;;;;;12.82;2.05;;;10.20;99.90;;;;;;5038263;28;20045;-94
2022/01/31 11:52:49;;;;;;;8.07;1.27;;;10.40;99.90;;;;;;5055130;28;20040;-92
2022/01/31 11:55:24;;;;;;;11.25;1.30;;;10.70;99.90;;;;;;5021745;28;20091;-92
2022/01/31 11:57:54;;;;;;;8.38;2.05;;;10.70;99.90;;;;;;5039017;28;20087;-93
2022/01/31 12:00:28;;;;;;;7.68;1.25;;;11.10;99.90;;;;;;5038475;28;20132;-94
2022/01/31 12:03:05;;;;;;;12.15;1.27;;;10.90;99.90;;;;;;5038305;28;20060;-92
2022/01/31 12:05:35;;;;;;;5.20;1.20;;;10.50;99.90;;;;;;5054106;28;20049;-92
2022/01/31 12:08:07;;;;;;;6.85;1.00;;;10.60;99.90;;;;;;5042954;28;20403;-91
2022/01/31 12:10:42;;;;;;;3.72;0.93;;;10.70;99.90;;;;;;5001979;28;20449;-93
2022/01/31 12:13:33;;;;;;;3.45;0.70;;;10.50;99.90;;;;;;5001834;28;20061;-91
2022/01/31 12:16:24;;;;;;;7.28;0.90;;;10.50;99.90;;;;;;5002011;28;20057;-92
2022/01/31 12:24:10;;;;;;;3.30;0.88;;;9.90;99.90;;;;;;5018548;28;20080;-94
2022/01/31 12:26:53;;;;;;;5.07;0.90;;;9.90;99.90;;;;;;5001932;28;20092;-91
2022/01/31 12:29:21;;;;;;;6.68;1.30;;;10.10;99.90;;;;;;5002217;28;20052;-91
2022/01/31 12:31:58;;;;;;;6.50;1.15;;;10.60;99.90;;;;;;5018471;28;20088;-92
2022/01/31 12:34:24;;;;;;;8.38;1.63;;;10.80;99.90;;;;;;5001590;28;20049;-92
2022/01/31 12:36:57;;;;;;;8.75;1.23;;;10.90;99.90;;;;;;5002070;28;20041;-92
2022/01/31 12:39:36;;;;;;;8.65;1.20;;;10.90;99.90;;;;;;5015004;28;20422;-93
2022/01/31 12:45:24;;;;;;;9.75;1.77;;;11.50;99.90;;;;;;5036218;28;20143;-92
2022/01/31 12:48:18;;;;;;;12.40;1.73;;;11.60;99.90;;;;;;5036888;28;20495;-92
2022/01/31 12:50:52;;;;;;;10.10;1.33;;;11.10;99.90;;;;;;4999086;28;20054;-94
2022/01/31 12:53:24;;;;;;;9.95;1.73;;;10.70;99.90;;;;;;5049221;28;20057;-93
2022/01/31 12:56:08;;;;;;;11.25;1.60;;;10.20;99.90;;;;;;5016475;28;20088;-94
2022/01/31 12:58:36;;;;;;;13.68;2.40;;;9.80;99.90;;;;;;5015404;28;20140;-93
2022/01/31 13:01:12;;;;;;;15.20;2.00;;;9.70;99.90;;;;;;5049304;28;20053;-94
2022/01/31 13:03:40;;;;;;;9.98;1.27;;;9.60;99.90;;;;;;5015750;28;20568;-92
2022/01/31 13:06:24;;;;;;;12.65;1.63;;;9.10;99.90;;;;;;5014138;28;20060;-91
2022/01/31 13:08:50;;;;;;;9.77;1.88;;;8.90;99.90;;;;;;5015001;28;20165;-93
2022/01/31 13:11:17;;;;;;;6.45;1.15;;;9.00;99.90;;;;;;5015750;28;20324;-93
2022/01/31 13:14:12;;;;;;;12.45;1.55;;;8.50;99.90;;;;;;5049136;28;20087;-92
2022/01/31 13:16:45;;;;;;;10.20;1.45;;;8.40;99.90;;;;;;5016224;28;20049;-94
2022/01/31 13:19:14;;;;;;;15.00;2.25;;;8.40;99.90;;;;;;5047569;28;20081;-92
2022/01/31 13:21:41;;;;;;;12.43;2.47;;;8.50;99.90;;;;;;4999553;28;20045;-94
2022/01/31 13:24:07;;;;;;;11.75;1.50;;;8.20;99.90;;;;;;5016395;28;20092;-91
2022/01/31 13:30:19;;;;;;;15.07;2.00;;;7.70;99.90;;;;;;5053987;28;20100;-91
2022/01/31 13:32:47;;;;;;;15.48;1.98;;;7.50;99.90;;;;;;5037336;28;20037;-91
2022/01/31 13:35:24;;;;;;;17.75;2.08;;;7.50;99.90;;;;;;5020263;28;20068;-93
2022/01/31 13:38:12;;;;;;;15.63;1.65;;;7.50;99.90;;;;;;4987646;28;20041;-90
2022/01/31 13:40:48;;;;;;;9.32;1.42;;;7.60;99.90;;;;;;5019330;28;20094;-93
2022/01/31 13:43:32;;;;;;;13.77;1.50;;;7.50;99.90;;;;;;5019592;28;20052;-92